Time;durP1;ratioP1;P1;durP2;ratioP2;P2;SDS_P1;SDS_P2;PMS_P1;PMS_P2;Temp;Humidity;BMP_temperature;BMP_pressure;BME280_temperature;BME280_humidity;BME280_pressure;Samples;Min_cycle;Max_cycle;Signal;HPM_P1;HPM_P2
2023/07/27 00:00:00;;;;;;;6.35;2.72;;;;;;;;;;5098377;28;20060;-64
2023/07/27 00:02:27;;;;;;;9.30;2.78;;;;;;;;;;5095562;28;20043;-65
2023/07/27 00:04:54;;;;;;;4.85;2.47;;;;;;;;;;5106661;28;20143;-65
2023/07/27 00:07:20;;;;;;;8.43;2.58;;;;;;;;;;5094104;28;20059;-64
2023/07/27 00:09:47;;;;;;;6.60;2.85;;;;;;;;;;5102849;28;20044;-64
2023/07/27 00:12:15;;;;;;;5.80;2.67;;;;;;;;;;5087005;28;20067;-64
2023/07/27 00:14:45;;;;;;;7.85;2.70;;;;;;;;;;5058820;28;20045;-65
2023/07/27 00:17:11;;;;;;;6.55;2.78;;;;;;;;;;5072285;28;20064;-64
2023/07/27 00:19:38;;;;;;;7.50;2.75;;;;;;;;;;5066670;28;20158;-64
2023/07/27 00:22:06;;;;;;;7.00;2.88;;;;;;;;;;5065333;28;20048;-65
2023/07/27 00:24:32;;;;;;;8.90;2.88;;;;;;;;;;5058326;28;20040;-67
2023/07/27 00:26:59;;;;;;;5.72;2.42;;;;;;;;;;5069624;28;20052;-64
2023/07/27 00:29:28;;;;;;;10.15;2.90;;;;;;;;;;5066376;28;20075;-65
2023/07/27 00:31:54;;;;;;;7.60;2.75;;;;;;;;;;5066400;28;20052;-65
2023/07/27 00:34:21;;;;;;;7.15;2.63;;;;;;;;;;5063106;28;20115;-64
2023/07/27 00:36:48;;;;;;;10.13;2.80;;;;;;;;;;5056386;28;20083;-65
2023/07/27 00:39:15;;;;;;;9.25;2.85;;;;;;;;;;5067224;28;20063;-65
2023/07/27 00:41:43;;;;;;;7.32;2.67;;;;;;;;;;5068286;28;20048;-65
2023/07/27 00:44:10;;;;;;;6.17;2.80;;;;;;;;;;5065990;28;20052;-64
2023/07/27 00:46:39;;;;;;;5.90;2.70;;;;;;;;;;5062697;28;20048;-65
2023/07/27 00:49:05;;;;;;;;;;;;;;;;;;5085762;28;20048;-65
2023/07/27 00:51:36;;;;;;;4.80;1.98;;;;;;;;;;5067452;28;19936;-66
2023/07/27 00:54:03;;;;;;;4.57;2.08;;;;;;;;;;5065472;28;20059;-66
2023/07/27 00:56:31;;;;;;;5.85;2.17;;;;;;;;;;5064502;28;20059;-66
2023/07/27 00:59:00;;;;;;;6.53;2.55;;;;;;;;;;5061308;28;20051;-66
2023/07/27 01:01:27;;;;;;;;;;;;;;;;;;5071766;28;20052;-66
2023/07/27 01:03:55;;;;;;;6.22;2.25;;;;;;;;;;5065637;28;19931;-66
2023/07/27 01:06:23;;;;;;;4.22;2.13;;;;;;;;;;5078883;28;20040;-67
2023/07/27 01:08:51;;;;;;;3.33;1.73;;;;;;;;;;5075824;28;20087;-66
2023/07/27 01:11:24;;;;;;;6.72;2.10;;;;;;;;;;5085296;28;20052;-66
2023/07/27 01:13:58;;;;;;;4.45;1.90;;;;;;;;;;5065359;28;20062;-65
2023/07/27 01:16:31;;;;;;;3.17;1.67;;;;;;;;;;5058269;28;20103;-66
2023/07/27 01:19:26;;;;;;;5.32;1.80;;;;;;;;;;5066304;28;20083;-65
2023/07/27 01:22:00;;;;;;;3.45;1.52;;;;;;;;;;5065405;28;20059;-65
2023/07/27 01:24:53;;;;;;;5.95;1.70;;;;;;;;;;5081119;28;20048;-67
2023/07/27 01:27:37;;;;;;;3.70;1.45;;;;;;;;;;5080527;28;20066;-65
2023/07/27 01:30:35;;;;;;;4.85;1.92;;;;;;;;;;5084129;28;20060;-66
2023/07/27 01:33:06;;;;;;;7.55;2.33;;;;;;;;;;5064664;28;20056;-65
2023/07/27 01:35:39;;;;;;;6.82;1.90;;;;;;;;;;5062924;28;20048;-65
2023/07/27 01:38:07;;;;;;;4.25;1.55;;;;;;;;;;5044053;28;20044;-65
2023/07/27 01:40:35;;;;;;;3.55;1.45;;;;;;;;;;5038993;28;20114;-66
2023/07/27 01:43:03;;;;;;;6.00;2.85;;;;;;;;;;5077550;28;20141;-65
2023/07/27 01:45:30;;;;;;;5.00;2.40;;;;;;;;;;5075013;28;20053;-65
2023/07/27 01:47:58;;;;;;;4.78;2.20;;;;;;;;;;5063398;28;20060;-66
2023/07/27 01:50:26;;;;;;;14.88;6.50;;;;;;;;;;5063084;28;20044;-66
2023/07/27 01:52:54;;;;;;;14.95;4.25;;;;;;;;;;5087386;28;20040;-65
2023/07/27 01:55:23;;;;;;;9.70;3.95;;;;;;;;;;5065314;28;20048;-65
2023/07/27 01:57:51;;;;;;;5.57;1.73;;;;;;;;;;5068071;28;20078;-65
2023/07/27 02:00:18;;;;;;;2.80;1.30;;;;;;;;;;5065470;28;20086;-66
2023/07/27 02:02:45;;;;;;;2.90;1.50;;;;;;;;;;5077285;28;20054;-65
2023/07/27 02:05:15;;;;;;;2.25;1.15;;;;;;;;;;5044537;28;20051;-67
2023/07/27 02:07:42;;;;;;;3.60;1.50;;;;;;;;;;5083684;28;20074;-65
2023/07/27 02:10:14;;;;;;;3.25;1.35;;;;;;;;;;5066210;28;20054;-65
2023/07/27 02:12:48;;;;;;;2.25;1.30;;;;;;;;;;5058756;28;20044;-65
2023/07/27 02:15:18;;;;;;;2.92;1.45;;;;;;;;;;5061023;28;20056;-65
2023/07/27 02:17:50;;;;;;;2.95;1.20;;;;;;;;;;5065877;28;20066;-65
2023/07/27 02:20:22;;;;;;;5.75;1.73;;;;;;;;;;5064572;28;20052;-66
2023/07/27 02:22:50;;;;;;;5.10;1.77;;;;;;;;;;5060937;28;20083;-65
2023/07/27 02:25:18;;;;;;;4.85;1.70;;;;;;;;;;5078699;28;20079;-65
2023/07/27 02:27:45;;;;;;;2.22;1.13;;;;;;;;;;5066176;28;20075;-65
2023/07/27 02:30:12;;;;;;;3.25;1.27;;;;;;;;;;5065198;28;20063;-65
2023/07/27 02:32:39;;;;;;;5.78;1.42;;;;;;;;;;5059304;28;20048;-65
2023/07/27 02:35:07;;;;;;;3.05;1.38;;;;;;;;;;5061016;28;20059;-65
2023/07/27 02:37:35;;;;;;;3.67;1.75;;;;;;;;;;5064905;28;20048;-65
2023/07/27 02:40:02;;;;;;;4.22;1.70;;;;;;;;;;5062173;28;20052;-66
2023/07/27 02:42:29;;;;;;;3.60;1.58;;;;;;;;;;5058649;28;20049;-66
2023/07/27 02:44:56;;;;;;;5.15;1.42;;;;;;;;;;5049669;28;20052;-65
2023/07/27 02:47:23;;;;;;;3.47;1.52;;;;;;;;;;5062479;28;20143;-65
2023/07/27 02:49:50;;;;;;;3.63;1.52;;;;;;;;;;5060866;28;20116;-65
2023/07/27 02:52:18;;;;;;;3.78;1.80;;;;;;;;;;5062763;28;20056;-67
2023/07/27 02:54:46;;;;;;;4.35;1.65;;;;;;;;;;5050661;28;20314;-65
2023/07/27 02:57:13;;;;;;;6.05;2.33;;;;;;;;;;5063024;28;20072;-65
2023/07/27 02:59:40;;;;;;;5.68;2.10;;;;;;;;;;5063445;28;20053;-65
2023/07/27 03:02:07;;;;;;;4.70;2.20;;;;;;;;;;5064091;28;20118;-65
2023/07/27 03:04:34;;;;;;;6.05;2.22;;;;;;;;;;5062392;28;20055;-66
2023/07/27 03:07:01;;;;;;;5.68;2.47;;;;;;;;;;5064172;28;20105;-65
2023/07/27 03:09:28;;;;;;;7.43;2.92;;;;;;;;;;5065485;28;20046;-65
2023/07/27 03:11:57;;;;;;;8.73;3.20;;;;;;;;;;5066134;28;20040;-65
2023/07/27 03:14:25;;;;;;;8.30;3.08;;;;;;;;;;5072773;28;20070;-67
2023/07/27 03:16:52;;;;;;;7.23;3.53;;;;;;;;;;5082085;28;20048;-65
2023/07/27 03:19:19;;;;;;;6.88;3.60;;;;;;;;;;5065051;28;20099;-65
2023/07/27 03:21:48;;;;;;;8.98;4.28;;;;;;;;;;5082534;28;20072;-65
2023/07/27 03:24:16;;;;;;;9.73;3.90;;;;;;;;;;5060159;28;20047;-65
2023/07/27 03:26:43;;;;;;;10.15;3.97;;;;;;;;;;5058664;28;20125;-65
2023/07/27 03:29:11;;;;;;;8.40;4.20;;;;;;;;;;5084768;28;20137;-65
2023/07/27 03:31:39;;;;;;;9.85;4.32;;;;;;;;;;5065446;28;20128;-65
2023/07/27 03:34:06;;;;;;;14.65;5.63;;;;;;;;;;5061213;28;20044;-65
2023/07/27 03:36:33;;;;;;;11.23;4.65;;;;;;;;;;5056427;28;20140;-65
2023/07/27 03:39:00;;;;;;;11.13;5.15;;;;;;;;;;5064586;28;20040;-64
2023/07/27 03:41:26;;;;;;;12.38;5.05;;;;;;;;;;5082380;28;20052;-65
2023/07/27 03:43:53;;;;;;;13.68;4.90;;;;;;;;;;5077561;28;20060;-65
2023/07/27 03:46:22;;;;;;;12.13;5.03;;;;;;;;;;5064035;28;20117;-66
2023/07/27 03:48:49;;;;;;;9.27;4.45;;;;;;;;;;5079459;28;20051;-65
2023/07/27 03:51:16;;;;;;;10.10;5.00;;;;;;;;;;5073281;28;20045;-64
2023/07/27 03:53:43;;;;;;;11.80;4.68;;;;;;;;;;5059816;28;20048;-65
2023/07/27 03:56:10;;;;;;;13.05;4.95;;;;;;;;;;5066080;28;20049;-64
2023/07/27 03:58:36;;;;;;;13.07;5.35;;;;;;;;;;5057066;28;20048;-64
2023/07/27 04:01:03;;;;;;;10.82;4.70;;;;;;;;;;5078861;28;20048;-65
2023/07/27 04:03:31;;;;;;;11.73;5.13;;;;;;;;;;5066168;28;20056;-66
2023/07/27 04:05:59;;;;;;;12.60;5.22;;;;;;;;;;5064239;28;20059;-64
2023/07/27 04:08:26;;;;;;;9.33;4.90;;;;;;;;;;5063273;28;20056;-66
2023/07/27 04:10:52;;;;;;;14.35;4.70;;;;;;;;;;5088340;28;20134;-66
2023/07/27 04:13:19;;;;;;;12.60;5.47;;;;;;;;;;5064224;28;20056;-66
2023/07/27 04:15:46;;;;;;;11.70;4.57;;;;;;;;;;5024149;28;20052;-65
2023/07/27 04:18:13;;;;;;;11.70;4.40;;;;;;;;;;5066433;28;20048;-66
2023/07/27 04:20:41;;;;;;;11.80;4.97;;;;;;;;;;5056520;28;20057;-65
2023/07/27 04:23:08;;;;;;;12.00;4.45;;;;;;;;;;5064273;28;20060;-66
2023/07/27 04:25:34;;;;;;;11.88;4.90;;;;;;;;;;5058427;28;20060;-65
2023/07/27 04:28:01;;;;;;;9.20;4.10;;;;;;;;;;5065097;28;20166;-65
2023/07/27 04:30:31;;;;;;;10.73;4.03;;;;;;;;;;5060715;28;20052;-67
2023/07/27 04:32:57;;;;;;;11.48;4.18;;;;;;;;;;5077507;28;20044;-65
2023/07/27 04:35:24;;;;;;;8.38;4.28;;;;;;;;;;5058789;28;20056;-65
2023/07/27 04:37:52;;;;;;;8.93;4.05;;;;;;;;;;5064964;28;20059;-65
2023/07/27 04:40:20;;;;;;;8.77;4.30;;;;;;;;;;5063076;28;20155;-65
2023/07/27 04:42:46;;;;;;;8.07;3.92;;;;;;;;;;5059880;28;20053;-66
2023/07/27 04:45:13;;;;;;;8.80;3.78;;;;;;;;;;5057850;28;20082;-66
2023/07/27 04:47:40;;;;;;;8.95;3.53;;;;;;;;;;5064879;28;20040;-66
2023/07/27 04:50:08;;;;;;;8.55;3.22;;;;;;;;;;5081451;28;20086;-65
2023/07/27 04:52:35;;;;;;;8.27;3.23;;;;;;;;;;5059184;28;20068;-66
2023/07/27 04:55:03;;;;;;;9.90;3.90;;;;;;;;;;5060484;28;20052;-67
2023/07/27 04:57:30;;;;;;;6.63;3.13;;;;;;;;;;5065064;28;20056;-66
2023/07/27 04:59:57;;;;;;;9.63;3.63;;;;;;;;;;5064551;28;20044;-66
2023/07/27 05:02:25;;;;;;;7.85;3.05;;;;;;;;;;5060966;28;20052;-67
2023/07/27 05:04:52;;;;;;;;;;;;;;;;;;5062296;28;20087;-66
2023/07/27 05:07:19;;;;;;;7.10;2.88;;;;;;;;;;5060570;28;19920;-66
2023/07/27 05:09:47;;;;;;;8.18;2.90;;;;;;;;;;5062096;28;20053;-66
2023/07/27 05:12:15;;;;;;;8.57;2.85;;;;;;;;;;5060231;28;20064;-66
2023/07/27 05:14:42;;;;;;;7.28;2.97;;;;;;;;;;5040367;28;20073;-66
2023/07/27 05:17:08;;;;;;;8.30;3.13;;;;;;;;;;5064100;28;20126;-66
2023/07/27 05:19:36;;;;;;;12.73;3.42;;;;;;;;;;5061260;28;20050;-66
2023/07/27 05:22:05;;;;;;;7.50;2.80;;;;;;;;;;5063256;28;20052;-65
2023/07/27 05:24:32;;;;;;;6.68;2.88;;;;;;;;;;5040916;28;20151;-67
2023/07/27 05:26:59;;;;;;;7.85;3.05;;;;;;;;;;5065939;28;20109;-66
2023/07/27 05:29:27;;;;;;;7.55;2.97;;;;;;;;;;5062832;28;20056;-66
2023/07/27 05:31:54;;;;;;;4.97;2.28;;;;;;;;;;5061966;28;20098;-67
2023/07/27 05:34:20;;;;;;;8.35;3.00;;;;;;;;;;5059469;28;20052;-66
2023/07/27 05:36:47;;;;;;;7.60;2.60;;;;;;;;;;5057679;28;20056;-66
2023/07/27 05:39:14;;;;;;;4.68;2.20;;;;;;;;;;5062317;28;20072;-66
2023/07/27 05:41:40;;;;;;;5.70;2.50;;;;;;;;;;5063101;28;20053;-67
2023/07/27 05:44:07;;;;;;;6.78;2.92;;;;;;;;;;5058372;28;20060;-66
2023/07/27 05:46:36;;;;;;;5.65;2.00;;;;;;;;;;5056774;28;20060;-67
2023/07/27 05:49:02;;;;;;;4.70;2.15;;;;;;;;;;5064769;28;20281;-66
2023/07/27 05:51:29;;;;;;;5.28;2.17;;;;;;;;;;5063493;28;20114;-66
2023/07/27 05:53:56;;;;;;;4.03;2.13;;;;;;;;;;5058620;28;20113;-66
2023/07/27 05:56:23;;;;;;;6.97;2.22;;;;;;;;;;5062877;28;20204;-68
2023/07/27 05:58:49;;;;;;;4.45;2.28;;;;;;;;;;5075300;28;20052;-67
2023/07/27 06:01:16;;;;;;;7.00;3.10;;;;;;;;;;5066284;28;20055;-67
2023/07/27 06:03:47;;;;;;;6.03;2.33;;;;;;;;;;5060218;28;20060;-68
2023/07/27 06:06:15;;;;;;;6.30;2.83;;;;;;;;;;5056512;28;20047;-67
2023/07/27 06:08:42;;;;;;;5.35;2.70;;;;;;;;;;5058771;28;20055;-67
2023/07/27 06:11:09;;;;;;;6.57;3.60;;;;;;;;;;5065656;28;20044;-67
2023/07/27 06:13:37;;;;;;;6.13;2.80;;;;;;;;;;5062450;28;20049;-67
2023/07/27 06:16:05;;;;;;;4.25;2.20;;;;;;;;;;5051701;28;20055;-67
2023/07/27 06:18:32;;;;;;;6.47;1.92;;;;;;;;;;5060167;28;20044;-67
2023/07/27 06:21:00;;;;;;;4.60;2.28;;;;;;;;;;5067112;28;20048;-67
2023/07/27 06:23:27;;;;;;;6.63;2.63;;;;;;;;;;5065659;28;20072;-67
2023/07/27 06:25:54;;;;;;;4.05;2.00;;;;;;;;;;5060966;28;20055;-66
2023/07/27 06:28:21;;;;;;;16.52;8.07;;;;;;;;;;5067195;28;20113;-67
2023/07/27 06:30:48;;;;;;;9.27;4.63;;;;;;;;;;5061126;28;20048;-67
2023/07/27 06:33:15;;;;;;;5.38;2.90;;;;;;;;;;5064695;28;20054;-66
2023/07/27 06:35:45;;;;;;;3.95;2.00;;;;;;;;;;5058082;28;20105;-67
2023/07/27 06:38:16;;;;;;;6.60;2.05;;;;;;;;;;5064023;28;20052;-68
2023/07/27 06:40:45;;;;;;;4.03;1.73;;;;;;;;;;5077493;28;20052;-67
2023/07/27 06:43:13;;;;;;;4.03;1.85;;;;;;;;;;5064966;28;20044;-66
2023/07/27 06:45:40;;;;;;;5.90;1.83;;;;;;;;;;5055614;28;20055;-66
2023/07/27 06:48:07;;;;;;;3.25;1.60;;;;;;;;;;5062808;28;20056;-66
2023/07/27 06:50:34;;;;;;;3.67;1.65;;;;;;;;;;5058227;28;20052;-67
2023/07/27 06:53:00;;;;;;;3.67;1.58;;;;;;;;;;5066251;28;20112;-67
2023/07/27 06:55:29;;;;;;;3.53;1.40;;;;;;;;;;5064710;28;20060;-68
2023/07/27 06:57:57;;;;;;;2.65;1.40;;;;;;;;;;5081895;28;20056;-66
2023/07/27 07:00:24;;;;;;;3.15;1.48;;;;;;;;;;5079685;28;20059;-68
2023/07/27 07:02:51;;;;;;;2.47;1.42;;;;;;;;;;5083147;28;20141;-67
2023/07/27 07:05:18;;;;;;;2.75;1.33;;;;;;;;;;5080913;28;20044;-67
2023/07/27 07:07:44;;;;;;;3.42;1.25;;;;;;;;;;5082466;28;20048;-67
2023/07/27 07:10:11;;;;;;;1.65;1.05;;;;;;;;;;5079213;28;20044;-67
2023/07/27 07:12:40;;;;;;;2.78;1.27;;;;;;;;;;5048991;28;20048;-67
2023/07/27 07:15:10;;;;;;;2.67;1.48;;;;;;;;;;5040196;28;20048;-68
2023/07/27 07:17:37;;;;;;;3.88;1.40;;;;;;;;;;5063872;28;20354;-67
2023/07/27 07:20:09;;;;;;;2.53;1.50;;;;;;;;;;5045168;28;20118;-67
2023/07/27 07:22:36;;;;;;;2.97;1.40;;;;;;;;;;5054397;28;20079;-67
2023/07/27 07:25:03;;;;;;;2.10;1.50;;;;;;;;;;5038873;28;20044;-67
2023/07/27 07:27:30;;;;;;;2.75;1.67;;;;;;;;;;5070563;28;20085;-67
2023/07/27 07:29:58;;;;;;;9.77;2.78;;;;;;;;;;5067638;28;20052;-67
2023/07/27 07:32:25;;;;;;;6.05;2.85;;;;;;;;;;5063536;28;20056;-69
2023/07/27 07:34:52;;;;;;;2.15;1.20;;;;;;;;;;5042460;28;20052;-67
2023/07/27 07:37:19;;;;;;;2.53;1.52;;;;;;;;;;5069451;28;20048;-68
2023/07/27 07:39:48;;;;;;;3.28;1.52;;;;;;;;;;5066313;28;20055;-67
2023/07/27 07:42:15;;;;;;;2.10;1.40;;;;;;;;;;5070013;28;20056;-67
2023/07/27 07:44:41;;;;;;;2.40;1.42;;;;;;;;;;5053757;28;20059;-67
2023/07/27 07:47:12;;;;;;;2.40;1.25;;;;;;;;;;5088256;28;20103;-67
2023/07/27 07:49:39;;;;;;;4.28;1.50;;;;;;;;;;5082241;28;20147;-67
2023/07/27 07:52:06;;;;;;;1.63;1.20;;;;;;;;;;5087036;28;20059;-67
2023/07/27 07:54:33;;;;;;;3.63;1.50;;;;;;;;;;5054997;28;20044;-67
2023/07/27 07:57:00;;;;;;;2.38;1.40;;;;;;;;;;5086621;28;20078;-67
2023/07/27 07:59:27;;;;;;;2.45;1.30;;;;;;;;;;5086284;28;20096;-67
2023/07/27 08:01:54;;;;;;;2.10;1.40;;;;;;;;;;5086342;28;20079;-67
2023/07/27 08:04:22;;;;;;;2.38;1.50;;;;;;;;;;5059149;28;20105;-67
2023/07/27 08:06:49;;;;;;;3.92;1.33;;;;;;;;;;5083994;28;20048;-66
2023/07/27 08:09:16;;;;;;;2.75;1.30;;;;;;;;;;5066363;28;20052;-67
2023/07/27 08:11:42;;;;;;;2.20;1.27;;;;;;;;;;5069122;28;20047;-68
2023/07/27 08:14:09;;;;;;;6.05;3.08;;;;;;;;;;5061933;28;20077;-66
2023/07/27 08:16:36;;;;;;;4.88;2.38;;;;;;;;;;5043420;28;20159;-67
2023/07/27 08:19:03;;;;;;;4.07;1.60;;;;;;;;;;5045813;28;20070;-66
2023/07/27 08:21:31;;;;;;;3.97;1.33;;;;;;;;;;5065288;28;20075;-67
2023/07/27 08:23:58;;;;;;;2.00;1.20;;;;;;;;;;5052171;28;20048;-67
2023/07/27 08:26:26;;;;;;;2.00;1.23;;;;;;;;;;5043734;28;20063;-68
2023/07/27 08:28:52;;;;;;;2.22;1.15;;;;;;;;;;5061986;28;20056;-67
2023/07/27 08:31:19;;;;;;;1.60;1.23;;;;;;;;;;5065633;28;20063;-66
2023/07/27 08:33:46;;;;;;;2.55;1.40;;;;;;;;;;5052008;28;20051;-67
2023/07/27 08:36:13;;;;;;;1.55;1.02;;;;;;;;;;5060353;28;20132;-67
2023/07/27 08:38:41;;;;;;;2.05;1.10;;;;;;;;;;5057902;28;20183;-67
2023/07/27 08:41:08;;;;;;;1.58;1.10;;;;;;;;;;5063218;28;20052;-67
2023/07/27 08:43:35;;;;;;;4.85;2.25;;;;;;;;;;5081513;28;20063;-69
2023/07/27 08:46:03;;;;;;;4.75;2.28;;;;;;;;;;5059677;28;20056;-67
2023/07/27 08:48:31;;;;;;;2.33;1.40;;;;;;;;;;5055368;28;20052;-68
2023/07/27 08:50:59;;;;;;;2.55;1.10;;;;;;;;;;5068115;28;20055;-67
2023/07/27 08:53:26;;;;;;;1.90;1.13;;;;;;;;;;5062832;28;20051;-68
2023/07/27 08:55:54;;;;;;;2.45;1.70;;;;;;;;;;5055997;28;20044;-67
2023/07/27 08:58:23;;;;;;;3.97;1.60;;;;;;;;;;5064034;28;20175;-67
2023/07/27 09:00:51;;;;;;;5.70;1.23;;;;;;;;;;5061528;28;20145;-67
2023/07/27 09:03:18;;;;;;;2.55;1.50;;;;;;;;;;5082357;28;20071;-68
2023/07/27 09:05:46;;;;;;;5.15;1.50;;;;;;;;;;5057902;28;20055;-68
2023/07/27 09:08:17;;;;;;;4.25;1.20;;;;;;;;;;5047819;28;20151;-67
2023/07/27 09:10:45;;;;;;;4.85;1.48;;;;;;;;;;5061228;28;20040;-68
2023/07/27 09:13:13;;;;;;;;;;;;;;;;;;5064824;28;20140;-68
2023/07/27 09:15:44;;;;;;;2.05;1.05;;;;;;;;;;5069436;28;19943;-67
2023/07/27 09:18:26;;;;;;;5.82;1.48;;;;;;;;;;5062228;28;20230;-68
2023/07/27 09:20:58;;;;;;;2.35;1.38;;;;;;;;;;5064931;28;20058;-68
2023/07/27 09:23:25;;;;;;;1.67;1.20;;;;;;;;;;5082228;28;20139;-68
2023/07/27 09:25:55;;;;;;;2.17;1.23;;;;;;;;;;5059655;28;20139;-68
2023/07/27 09:28:29;;;;;;;3.42;1.20;;;;;;;;;;5060507;28;20071;-67
2023/07/27 09:30:59;;;;;;;2.72;1.27;;;;;;;;;;5081602;28;20067;-67
2023/07/27 09:33:26;;;;;;;5.20;1.38;;;;;;;;;;5080600;28;20070;-68
2023/07/27 09:35:53;;;;;;;2.78;1.30;;;;;;;;;;5058078;28;20113;-68
2023/07/27 09:38:24;;;;;;;3.47;1.60;;;;;;;;;;5046917;28;20116;-67
2023/07/27 09:40:52;;;;;;;2.20;1.00;;;;;;;;;;5062063;28;20064;-67
2023/07/27 09:43:19;;;;;;;3.90;1.33;;;;;;;;;;5044696;28;20048;-67
2023/07/27 09:45:47;;;;;;;2.70;1.33;;;;;;;;;;5046491;28;20066;-68
2023/07/27 09:48:14;;;;;;;3.25;1.20;;;;;;;;;;5079234;28;20070;-67
2023/07/27 09:50:45;;;;;;;3.50;1.23;;;;;;;;;;5075118;28;20055;-68
2023/07/27 09:53:15;;;;;;;4.85;1.27;;;;;;;;;;5080434;28;20048;-67
2023/07/27 09:55:43;;;;;;;2.88;1.40;;;;;;;;;;5062283;28;20060;-68
2023/07/27 09:58:10;;;;;;;;;;;;;;;;;;5066350;28;20055;-68
2023/07/27 10:00:37;;;;;;;2.50;1.23;;;;;;;;;;5065230;28;19924;-68
2023/07/27 10:03:05;;;;;;;2.97;1.20;;;;;;;;;;5038283;28;20068;-68
2023/07/27 10:05:32;;;;;;;3.45;1.50;;;;;;;;;;5023041;28;20068;-68
2023/07/27 10:07:59;;;;;;;3.33;1.48;;;;;;;;;;5057570;28;20113;-69
2023/07/27 10:10:35;;;;;;;3.10;1.85;;;;;;;;;;5054614;28;20059;-68
2023/07/27 10:13:07;;;;;;;7.75;3.33;;;;;;;;;;5044615;28;20049;-68
2023/07/27 10:15:40;;;;;;;4.63;2.20;;;;;;;;;;5014650;28;20085;-67
2023/07/27 10:18:13;;;;;;;3.97;1.63;;;;;;;;;;5055755;28;20091;-68
2023/07/27 10:20:40;;;;;;;2.50;1.40;;;;;;;;;;5050495;28;20041;-67
2023/07/27 10:23:13;;;;;;;3.80;1.25;;;;;;;;;;5056641;28;20067;-68
2023/07/27 10:26:05;;;;;;;2.83;1.40;;;;;;;;;;5052332;28;20048;-68
2023/07/27 10:28:43;;;;;;;6.45;1.67;;;;;;;;;;5052032;28;20059;-68
2023/07/27 10:31:21;;;;;;;;;;;;;;;;;;5063473;28;20290;-67
2023/07/27 10:33:55;;;;;;;6.30;2.65;;;;;;;;;;5057544;28;19930;-68
2023/07/27 10:36:23;;;;;;;3.10;1.38;;;;;;;;;;5006095;28;20064;-68
2023/07/27 10:38:57;;;;;;;2.58;1.40;;;;;;;;;;5051848;28;20110;-67
2023/07/27 10:41:26;;;;;;;2.90;1.33;;;;;;;;;;5055240;28;20056;-67
2023/07/27 10:44:24;;;;;;;4.82;1.50;;;;;;;;;;5062333;28;20142;-68
2023/07/27 10:46:57;;;;;;;3.42;1.40;;;;;;;;;;5052866;28;20052;-68
2023/07/27 10:49:25;;;;;;;3.75;1.48;;;;;;;;;;5069123;28;20052;-67
2023/07/27 10:51:53;;;;;;;3.15;1.83;;;;;;;;;;5061098;28;20069;-68
2023/07/27 10:54:21;;;;;;;4.43;1.65;;;;;;;;;;5043623;28;20052;-68
2023/07/27 10:56:49;;;;;;;5.97;1.88;;;;;;;;;;5053954;28;20352;-67
2023/07/27 10:59:16;;;;;;;;;;;;;;;;;;5060202;28;20056;-68
2023/07/27 11:01:47;;;;;;;5.10;2.28;;;;;;;;;;5058002;28;20002;-68
2023/07/27 11:04:16;;;;;;;3.63;2.00;;;;;;;;;;5046547;28;20056;-69
2023/07/27 11:06:50;;;;;;;4.18;1.90;;;;;;;;;;5062139;28;20080;-69
2023/07/27 11:09:18;;;;;;;4.50;2.33;;;;;;;;;;5061968;28;20139;-68
2023/07/27 11:11:52;;;;;;;3.28;1.77;;;;;;;;;;5058411;28;20049;-69
2023/07/27 11:14:19;;;;;;;4.75;2.17;;;;;;;;;;5033438;28;20064;-69
2023/07/27 11:16:46;;;;;;;3.17;1.95;;;;;;;;;;5054435;28;20129;-69
2023/07/27 11:19:13;;;;;;;6.15;2.50;;;;;;;;;;5059351;28;20056;-69
2023/07/27 11:21:41;;;;;;;3.47;2.20;;;;;;;;;;5058036;28;20052;-69
2023/07/27 11:24:16;;;;;;;4.05;2.28;;;;;;;;;;5052566;28;20130;-70
2023/07/27 11:26:43;;;;;;;4.25;2.25;;;;;;;;;;4997300;28;20333;-69
2023/07/27 11:29:10;;;;;;;7.53;2.40;;;;;;;;;;5057872;28;20052;-69
2023/07/27 11:31:37;;;;;;;4.18;2.10;;;;;;;;;;5061715;28;20182;-69
2023/07/27 11:34:05;;;;;;;5.07;2.00;;;;;;;;;;5056646;28;20076;-69
2023/07/27 11:36:34;;;;;;;5.30;2.33;;;;;;;;;;5002168;28;20059;-70
2023/07/27 11:39:02;;;;;;;4.35;2.03;;;;;;;;;;5058036;28;20049;-69
2023/07/27 11:41:31;;;;;;;;;;;;;;;;;;5060271;28;20052;-69
2023/07/27 11:43:59;;;;;;;4.97;2.25;;;;;;;;;;5057509;28;19978;-69
2023/07/27 11:46:27;;;;;;;5.32;2.38;;;;;;;;;;5052554;28;20064;-68
2023/07/27 11:48:56;;;;;;;7.22;3.08;;;;;;;;;;5060779;28;20159;-68
2023/07/27 11:51:25;;;;;;;25.15;11.45;;;;;;;;;;5060165;28;20048;-67
2023/07/27 11:54:09;;;;;;;5.57;2.85;;;;;;;;;;5059145;28;20049;-67
2023/07/27 11:56:38;;;;;;;4.53;1.98;;;;;;;;;;5007883;28;20135;-68
2023/07/27 11:59:09;;;;;;;4.50;2.13;;;;;;;;;;5057792;28;20062;-68
2023/07/27 12:01:36;;;;;;;3.85;1.90;;;;;;;;;;5065305;28;20084;-68
2023/07/27 12:04:05;;;;;;;6.33;1.87;;;;;;;;;;5061059;28;20044;-68
2023/07/27 12:06:32;;;;;;;4.78;2.13;;;;;;;;;;5051331;28;20077;-68
2023/07/27 12:09:00;;;;;;;3.13;1.80;;;;;;;;;;5061357;28;20066;-68
2023/07/27 12:11:27;;;;;;;2.78;1.65;;;;;;;;;;5081901;28;20059;-69
2023/07/27 12:13:56;;;;;;;2.92;1.73;;;;;;;;;;5084364;28;20352;-68
2023/07/27 12:16:24;;;;;;;3.55;1.88;;;;;;;;;;5049098;28;20131;-69
2023/07/27 12:18:51;;;;;;;2.80;1.58;;;;;;;;;;5081392;28;20146;-68
2023/07/27 12:21:18;;;;;;;3.40;1.77;;;;;;;;;;5083208;28;20067;-68
2023/07/27 12:23:47;;;;;;;5.25;1.77;;;;;;;;;;5079612;28;20081;-69
2023/07/27 12:26:15;;;;;;;2.92;1.80;;;;;;;;;;5037051;28;20051;-68
2023/07/27 12:28:44;;;;;;;3.10;2.00;;;;;;;;;;5059582;28;20094;-68
2023/07/27 12:31:12;;;;;;;3.33;2.08;;;;;;;;;;5066158;28;20051;-69
2023/07/27 12:33:39;;;;;;;3.10;1.83;;;;;;;;;;5064234;28;20080;-68
2023/07/27 12:36:06;;;;;;;3.28;1.92;;;;;;;;;;5058298;28;20051;-69
2023/07/27 12:38:33;;;;;;;7.25;2.03;;;;;;;;;;5058346;28;20064;-68
2023/07/27 12:41:00;;;;;;;3.35;1.92;;;;;;;;;;5068227;28;20068;-68
2023/07/27 12:43:28;;;;;;;3.67;2.08;;;;;;;;;;5062627;28;20056;-68
2023/07/27 12:45:57;;;;;;;;;;;;;;;;;;5040673;28;20120;-66
2023/07/27 12:48:25;;;;;;;;;;;;;;;;;;5064929;28;19928;-69
2023/07/27 12:50:52;;;;;;;2.70;1.42;;;;;;;;;;5064142;28;19954;-67
2023/07/27 12:53:18;;;;;;;1.98;1.33;;;;;;;;;;5066404;28;20051;-67
2023/07/27 12:55:45;;;;;;;2.10;1.27;;;;;;;;;;5010265;28;20053;-67
2023/07/27 12:58:12;;;;;;;2.28;1.58;;;;;;;;;;5045962;28;20048;-66
2023/07/27 13:00:39;;;;;;;6.32;1.70;;;;;;;;;;5044744;28;20068;-68
2023/07/27 13:03:06;;;;;;;3.03;1.55;;;;;;;;;;5061692;28;20311;-68
2023/07/27 13:05:36;;;;;;;4.60;1.60;;;;;;;;;;5042763;28;20052;-69
2023/07/27 13:08:03;;;;;;;2.42;1.20;;;;;;;;;;5082493;28;20056;-68
2023/07/27 13:10:29;;;;;;;2.78;1.55;;;;;;;;;;5062068;28;20048;-70
2023/07/27 13:12:56;;;;;;;2.65;1.50;;;;;;;;;;5078346;28;20051;-68
2023/07/27 13:15:23;;;;;;;2.28;1.40;;;;;;;;;;5035145;28;20052;-69
2023/07/27 13:17:52;;;;;;;2.70;1.70;;;;;;;;;;5063759;28;20062;-69
2023/07/27 13:20:19;;;;;;;8.90;4.45;;;;;;;;;;5064503;28;20055;-69
2023/07/27 13:22:47;;;;;;;4.05;2.20;;;;;;;;;;5059876;28;20050;-68
2023/07/27 13:25:14;;;;;;;3.10;1.85;;;;;;;;;;5066592;28;20052;-69
2023/07/27 13:27:41;;;;;;;3.42;1.60;;;;;;;;;;5062755;28;20150;-69
2023/07/27 13:30:09;;;;;;;3.00;1.80;;;;;;;;;;5082969;28;20064;-68
2023/07/27 13:32:36;;;;;;;2.97;1.58;;;;;;;;;;5066258;28;20047;-69
2023/07/27 13:35:02;;;;;;;2.50;1.55;;;;;;;;;;5056606;28;20048;-69
2023/07/27 13:37:30;;;;;;;2.00;1.20;;;;;;;;;;5078800;28;20059;-68
2023/07/27 13:40:01;;;;;;;2.23;0.90;;;;;;;;;;5064795;28;20055;-69
2023/07/27 13:42:28;;;;;;;0.80;0.80;;;;;;;;;;5056412;28;20056;-69
2023/07/27 13:44:55;;;;;;;0.68;0.68;;;;;;;;;;5073695;28;20129;-67
2023/07/27 13:47:21;;;;;;;1.40;0.90;;;;;;;;;;5079466;28;20063;-67
2023/07/27 13:49:48;;;;;;;1.50;0.80;;;;;;;;;;5062192;28;20082;-68
2023/07/27 13:52:17;;;;;;;2.20;0.90;;;;;;;;;;5062720;28;20060;-67
2023/07/27 13:54:44;;;;;;;2.78;1.00;;;;;;;;;;5050073;28;20053;-68
2023/07/27 13:57:12;;;;;;;2.55;0.95;;;;;;;;;;5060698;28;20054;-68
2023/07/27 13:59:39;;;;;;;2.97;1.58;;;;;;;;;;5084652;28;20047;-68
2023/07/27 14:02:09;;;;;;;10.98;3.65;;;;;;;;;;5058414;28;20040;-69
2023/07/27 14:04:36;;;;;;;4.40;2.35;;;;;;;;;;5050501;28;20059;-69
2023/07/27 14:07:03;;;;;;;3.97;1.70;;;;;;;;;;5059093;28;20106;-67
2023/07/27 14:09:30;;;;;;;3.75;1.35;;;;;;;;;;5059031;28;20133;-67
2023/07/27 14:11:57;;;;;;;3.03;1.30;;;;;;;;;;5060286;28;20048;-67
2023/07/27 14:14:26;;;;;;;1.92;1.00;;;;;;;;;;5051612;28;20079;-69
2023/07/27 14:16:53;;;;;;;6.63;1.10;;;;;;;;;;5046219;28;20062;-69
2023/07/27 14:19:20;;;;;;;3.08;1.15;;;;;;;;;;5058348;28;20082;-68
2023/07/27 14:21:47;;;;;;;1.80;0.95;;;;;;;;;;5058296;28;20056;-69
2023/07/27 14:24:14;;;;;;;1.92;1.17;;;;;;;;;;5057676;28;20174;-68
2023/07/27 14:26:41;;;;;;;6.75;2.50;;;;;;;;;;5043494;28;20149;-69
2023/07/27 14:29:07;;;;;;;5.88;2.97;;;;;;;;;;5059311;28;20112;-68
2023/07/27 14:31:35;;;;;;;2.03;1.00;;;;;;;;;;5060080;28;20056;-68
2023/07/27 14:34:03;;;;;;;4.22;1.50;;;;;;;;;;5040888;28;20170;-67
2023/07/27 14:36:31;;;;;;;2.85;1.27;;;;;;;;;;5043313;28;20052;-69
2023/07/27 14:38:58;;;;;;;1.77;1.10;;;;;;;;;;5074311;28;20056;-67
2023/07/27 14:41:25;;;;;;;1.13;0.98;;;;;;;;;;5061495;28;20052;-67
2023/07/27 14:43:54;;;;;;;2.28;1.30;;;;;;;;;;5057034;28;20048;-67
2023/07/27 14:46:22;;;;;;;2.08;1.17;;;;;;;;;;5035859;28;20048;-68
2023/07/27 14:48:50;;;;;;;2.10;1.15;;;;;;;;;;5057001;28;20060;-67
2023/07/27 14:51:17;;;;;;;2.17;1.40;;;;;;;;;;5060695;28;20117;-67